»·PEaware :: RYR221 KASE-KABQ

RYR221 :: KASE-KABQ

FLIGHT INFORMATION

Flight Status: Arrived
Operator:
Ryanair
More flights by this operator :: More flights under this callsign
Pilot: William H. (1753)
Aircraft: AIRBUS A320
(A320)
More flights by this aircraft type
Origin: KASE Aspen-Pitkin Co/Sardy
United States
Destination: KABQ Albuquerque Intl Sunport
United States
More flights between these airports :: More routes between these airports
Route: LINDZ8 LINDZ HBU DATME SNDIA3
File this flight plan on PilotEdge
Remarks: PBN / A1B1C1D1O1S1 DOF / 171114 REG / MCIAF EET / KZAB0026 OPR / RYR PER / C RMK / TCAS
Altitude:
(Current/Filed)
35,000ft
Speed:
(Current/Filed)
459kts
Departed: 14-Nov-17 11:25 AM
Arrived: 14-Nov-17 12:28 PM
Distance/Time
Traveled:
251nm/1:03
Distance/Time
To Go:
Arrived

Flight Plot

Page will automatically refresh every two minutes.

Flight plan parsing failed; only flown route is shown


Map Options




Map Legend


Flown Route
Filed Route
Departure Airport
Arrival Airport
Navaid (VOR, NDB)
Fix

Horizontal Profiles

Position Reports

Time Latitude Longitude Heading Altitude Ground
Speed
14-Nov-17 10:36 39.219829 -106.865343 161 7775ft 0kts
14-Nov-17 10:37 39.219829 -106.865343 161 7775ft 0kts
14-Nov-17 10:38 39.219829 -106.865343 161 7775ft 0kts
14-Nov-17 10:39 39.219829 -106.865343 161 7775ft 0kts
14-Nov-17 10:40 39.219829 -106.865343 161 7775ft 0kts
14-Nov-17 10:41 39.219829 -106.865343 161 7775ft 0kts
14-Nov-17 10:42 39.219829 -106.865343 161 7775ft 0kts
14-Nov-17 10:43 39.219829 -106.865343 161 7775ft 0kts
14-Nov-17 10:44 39.219829 -106.865343 161 7775ft 0kts
14-Nov-17 10:45 39.219829 -106.865343 161 7775ft 0kts
14-Nov-17 10:46 39.219829 -106.865343 161 7775ft 0kts
14-Nov-17 10:47 39.219829 -106.865343 161 7775ft 0kts
14-Nov-17 10:48 39.219829 -106.865343 161 7775ft 0kts
14-Nov-17 10:49 39.219829 -106.865343 161 7775ft 0kts
14-Nov-17 10:50 39.219829 -106.865343 161 7775ft 0kts
14-Nov-17 10:51 39.219829 -106.865343 161 7775ft 0kts
14-Nov-17 10:52 39.219829 -106.865343 161 7775ft 0kts
14-Nov-17 10:53 39.219829 -106.865343 161 7775ft 0kts
14-Nov-17 10:54 39.219829 -106.865343 161 7775ft 0kts
14-Nov-17 10:55 39.219829 -106.865343 161 7775ft 0kts
14-Nov-17 10:56 39.219829 -106.865343 161 7775ft 0kts
14-Nov-17 10:57 39.219829 -106.865343 161 7775ft 0kts
14-Nov-17 10:58 39.219829 -106.865343 161 7775ft 0kts
14-Nov-17 10:59 39.219829 -106.865343 161 7775ft 0kts
14-Nov-17 11:00 39.219829 -106.865343 160 7775ft 0kts
14-Nov-17 11:01 39.219829 -106.865343 160 7775ft 0kts
14-Nov-17 11:02 39.219829 -106.865343 161 7775ft 0kts
14-Nov-17 11:03 39.219829 -106.865343 161 7775ft 0kts
14-Nov-17 11:04 39.220617 -106.865596 121 7769ft 0kts
14-Nov-17 11:05 39.220617 -106.865596 121 7769ft 0kts
14-Nov-17 11:06 39.220617 -106.865596 121 7769ft 0kts
14-Nov-17 11:07 39.220617 -106.865596 121 7769ft 0kts
14-Nov-17 11:08 39.220617 -106.865596 121 7769ft 0kts
14-Nov-17 11:09 39.220617 -106.865596 121 7769ft 0kts
14-Nov-17 11:10 39.220617 -106.865596 121 7769ft 0kts
14-Nov-17 11:11 39.220617 -106.865596 121 7769ft 0kts
14-Nov-17 11:12 39.220617 -106.865596 121 7769ft 0kts
14-Nov-17 11:13 39.220617 -106.865596 121 7769ft 0kts
14-Nov-17 11:14 39.220617 -106.865596 121 7769ft 0kts
14-Nov-17 11:15 39.220617 -106.865596 121 7769ft 0kts
14-Nov-17 11:16 39.220505 -106.865586 188 7770ft 0kts
14-Nov-17 11:17 39.220505 -106.865586 188 7770ft 0kts
14-Nov-17 11:18 39.219512 -106.865764 176 7776ft 11kts
14-Nov-17 11:19 39.216941 -106.864704 159 7796ft 6kts
14-Nov-17 11:20 39.216188 -106.864360 160 7801ft 0kts
14-Nov-17 11:21 39.216188 -106.864360 160 7801ft 0kts
14-Nov-17 11:22 39.216188 -106.864360 160 7801ft 0kts
14-Nov-17 11:23 39.216188 -106.864360 160 7801ft 0kts
14-Nov-17 11:24 39.216188 -106.864360 160 7801ft 0kts
14-Nov-17 11:25 39.216188 -106.864360 160 7801ft 0kts
14-Nov-17 11:26 39.216188 -106.864360 160 7801ft 0kts
14-Nov-17 11:27 39.214595 -106.863579 158 7810ft 21kts
14-Nov-17 11:28 39.212296 -106.862579 181 7843ft 2kts
14-Nov-17 11:29 39.212017 -106.863513 340 7829ft 6kts
14-Nov-17 11:30 39.215636 -106.865243 338 7804ft 53kts
14-Nov-17 11:31 39.243818 -106.878223 338 9090ft 168kts
14-Nov-17 11:32 39.272394 -106.915134 283 11058ft 222kts
14-Nov-17 11:33 39.286950 -106.984389 282 13563ft 254kts
14-Nov-17 11:34 39.290546 -107.052644 237 16454ft 253kts
14-Nov-17 11:35 39.234821 -107.076061 184 17849ft 319kts
14-Nov-17 11:36 39.157190 -107.072117 184 18781ft 364kts
14-Nov-17 11:37 39.076039 -107.068201 184 19591ft 396kts
14-Nov-17 11:38 38.978500 -107.063603 184 21052ft 408kts
14-Nov-17 11:39 38.890360 -107.059539 184 22396ft 414kts
14-Nov-17 11:40 38.801688 -107.055512 184 23583ft 420kts
14-Nov-17 11:41 38.708327 -107.051293 184 24702ft 428kts
14-Nov-17 11:42 38.615416 -107.047101 185 25709ft 435kts
14-Nov-17 11:43 38.518260 -107.042730 185 26671ft 442kts
14-Nov-17 11:44 38.416524 -107.021192 165 27559ft 470kts
14-Nov-17 11:45 38.323677 -106.971854 164 28286ft 478kts
14-Nov-17 11:46 38.228735 -106.921659 164 28960ft 485kts
14-Nov-17 11:47 38.133834 -106.871705 164 29622ft 490kts
14-Nov-17 11:48 38.040068 -106.822482 164 30388ft 490kts
14-Nov-17 11:49 37.946886 -106.773716 164 31143ft 490kts
14-Nov-17 11:50 37.867578 -106.732313 165 31822ft 489kts
14-Nov-17 11:51 37.776301 -106.684796 165 32506ft 489kts
14-Nov-17 11:52 37.684468 -106.637113 165 33153ft 489kts
14-Nov-17 11:53 37.590854 -106.588628 165 33838ft 488kts
14-Nov-17 11:54 37.497482 -106.540413 165 34418ft 487kts
14-Nov-17 11:55 37.403499 -106.492008 165 34996ft 486kts
14-Nov-17 11:56 37.310108 -106.444029 165 35340ft 483kts
14-Nov-17 11:57 37.218144 -106.396926 165 35333ft 482kts
14-Nov-17 11:58 37.133716 -106.353797 165 35327ft 483kts
14-Nov-17 11:59 37.045219 -106.308687 166 35313ft 483kts
14-Nov-17 12:00 36.952147 -106.261377 166 35291ft 484kts
14-Nov-17 12:01 36.860253 -106.214787 166 35334ft 486kts
14-Nov-17 12:02 36.764492 -106.166357 166 35384ft 487kts
14-Nov-17 12:03 36.672587 -106.132927 185 34482ft 463kts
14-Nov-17 12:04 36.585692 -106.150786 207 32459ft 437kts
14-Nov-17 12:05 36.505038 -106.186830 207 30484ft 439kts
14-Nov-17 12:06 36.424799 -106.222541 206 28376ft 443kts
14-Nov-17 12:07 36.343359 -106.258689 206 26073ft 450kts
14-Nov-17 12:08 36.258674 -106.294174 201 24431ft 462kts
14-Nov-17 12:09 36.175930 -106.341259 223 24343ft 457kts
14-Nov-17 12:10 36.112791 -106.420095 231 24341ft 449kts
14-Nov-17 12:11 36.051859 -106.500709 229 24342ft 450kts
14-Nov-17 12:12 35.974831 -106.553415 196 24344ft 434kts
14-Nov-17 12:13 35.893928 -106.540919 182 24345ft 431kts
14-Nov-17 12:14 35.810350 -106.548551 192 22710ft 442kts
14-Nov-17 12:15 35.721349 -106.560286 191 20765ft 433kts
14-Nov-17 12:16 35.640532 -106.570363 191 19609ft 371kts
14-Nov-17 12:17 35.576297 -106.585656 209 18207ft 324kts
14-Nov-17 12:18 35.528522 -106.611535 209 16657ft 312kts
14-Nov-17 12:19 35.473045 -106.641454 208 15116ft 305kts
14-Nov-17 12:20 35.410949 -106.674979 208 15077ft 308kts
14-Nov-17 12:21 35.369288 -106.697357 208 14701ft 296kts
14-Nov-17 12:22 35.321461 -106.723023 208 13943ft 286kts
14-Nov-17 12:23 35.273266 -106.750069 211 13328ft 266kts
14-Nov-17 12:24 35.218145 -106.783964 210 12126ft 254kts
14-Nov-17 12:25 35.180063 -106.806930 209 11154ft 253kts
14-Nov-17 12:26 35.132738 -106.834626 209 9745ft 249kts
14-Nov-17 12:27 35.084772 -106.829924 150 8587ft 247kts
14-Nov-17 12:28 35.056919 -106.783655 119 7672ft 240kts
14-Nov-17 12:29 35.043987 -106.733578 79 6711ft 238kts
14-Nov-17 12:30 35.044771 -106.684464 88 6375ft 204kts
14-Nov-17 12:31 35.044505 -106.643419 88 5761ft 162kts
14-Nov-17 12:32 35.044284 -106.609237 92 5321ft 105kts
14-Nov-17 12:33 35.044206 -106.600355 88 5324ft 8kts
14-Nov-17 12:34 35.044924 -106.598392 299 5324ft 12kts
14-Nov-17 12:35 35.045787 -106.603860 269 5324ft 26kts
14-Nov-17 12:36 35.045910 -106.609831 269 5321ft 25kts
14-Nov-17 12:37 35.046104 -106.614193 345 5318ft 0kts
14-Nov-17 12:38 35.046519 -106.615956 2 5316ft 6kts
14-Nov-17 12:39 35.046952 -106.615887 12 5315ft 0kts
14-Nov-17 12:40 35.046952 -106.615887 12 5315ft 0kts

Navigation Log

Ident Type
Flight plan parsing failed, navigation log unavailable